Time;durP1;ratioP1;P1;durP2;ratioP2;P2;SDS_P1;SDS_P2;PMS_P1;PMS_P2;Temp;Humidity;BMP_temperature;BMP_pressure;BME280_temperature;BME280_humidity;BME280_pressure;Samples;Min_cycle;Max_cycle;Signal;HPM_P1;HPM_P2
2021/05/08 08:48:33;;;;;;;3.97;1.45;;;13.90;45.00;;;;;;6236526;22;20876;-63
2021/05/08 09:00:23;;;;;;;3.90;1.13;;;14.40;41.30;;;;;;6251580;22;20041;31
2021/05/08 09:05:31;;;;;;;2.72;1.05;;;14.70;38.70;;;;;;6255980;22;20609;31
2021/05/08 09:08:09;;;;;;;3.85;1.40;;;15.10;38.60;;;;;;6246169;22;21386;31
2021/05/08 09:41:57;;;;;;;2.92;1.10;;;15.80;33.00;;;;;;6254114;22;20159;-61
2021/05/08 09:44:25;;;;;;;2.65;0.80;;;15.60;32.40;;;;;;6259462;22;20151;-61
2021/05/08 09:46:52;;;;;;;2.95;1.13;;;15.90;33.20;;;;;;6250618;22;20019;-62
2021/05/08 09:49:20;;;;;;;4.15;1.27;;;16.10;33.40;;;;;;6250874;22;20341;-62
2021/05/08 10:09:57;;;;;;;2.25;0.77;;;16.90;33.20;;;;;;6249795;22;20316;-59
2021/05/08 10:12:26;;;;;;;5.13;1.90;;;16.60;30.90;;;;;;6250313;22;20116;-61
2021/05/08 10:14:55;;;;;;;3.45;1.00;;;16.80;30.80;;;;;;6249281;22;20810;-61
2021/05/08 10:17:26;;;;;;;3.88;0.80;;;17.30;29.80;;;;;;6257854;22;20151;-60
2021/05/08 10:23:08;;;;;;;6.35;1.35;;;17.30;29.20;;;;;;6256831;22;20080;31
2021/05/08 10:25:36;;;;;;;4.40;1.20;;;17.40;29.40;;;;;;6255237;22;20067;-61
2021/05/08 10:30:44;;;;;;;3.05;1.00;;;17.70;29.00;;;;;;6252056;22;20015;-58
2021/05/08 10:33:16;;;;;;;6.78;1.30;;;18.70;28.00;;;;;;6250758;22;20159;31
2021/05/08 10:35:45;;;;;;;3.65;1.08;;;18.50;28.40;;;;;;6245583;22;20204;-61
2021/05/08 10:38:20;;;;;;;3.00;1.30;;;18.20;28.60;;;;;;6252285;22;20231;-60
2021/05/08 10:43:57;;;;;;;2.60;0.93;;;18.20;29.50;;;;;;6254335;22;20038;31
2021/05/08 10:46:28;;;;;;;2.72;0.75;;;18.10;29.40;;;;;;6255109;22;20566;-61
2021/05/08 10:56:25;;;;;;;1.45;0.70;;;20.00;27.40;;;;;;6246656;22;20115;31
2021/05/08 10:58:55;;;;;;;2.55;1.10;;;20.10;27.10;;;;;;6240250;22;20023;31
2021/05/08 11:01:39;;;;;;;1.42;0.77;;;20.60;26.30;;;;;;6240259;22;20033;-61
2021/05/08 11:22:08;;;;;;;3.45;0.80;;;20.60;25.80;;;;;;6217871;22;21107;-60
2021/05/08 11:56:55;;;;;;;1.85;0.60;;;22.40;24.30;;;;;;6255019;22;20035;31
2021/05/08 12:44:31;;;;;;;2.75;1.02;;;19.00;29.30;;;;;;6250828;22;20115;-62
2021/05/08 12:47:03;;;;;;;4.95;1.67;;;19.10;29.30;;;;;;6251850;22;20116;-59
2021/05/08 12:49:31;;;;;;;3.88;1.20;;;18.90;28.90;;;;;;6251812;22;20027;-62
2021/05/08 12:57:53;;;;;;;;;;;18.50;30.00;;;;;;6241886;22;21113;31
2021/05/08 13:00:38;;;;;;;1.30;0.60;;;18.50;29.40;;;;;;6224608;22;19925;31
2021/05/08 13:06:45;;;;;;;1.33;0.60;;;18.30;29.00;;;;;;6247257;22;20060;-63
2021/05/08 13:47:24;;;;;;;2.53;0.50;;;21.30;24.70;;;;;;5511464;23;20050;31
2021/05/08 13:49:55;;;;;;;1.63;0.60;;;21.00;24.60;;;;;;5557827;23;20241;31
2021/05/08 13:52:24;;;;;;;1.60;0.50;;;21.90;23.80;;;;;;5633426;23;21297;-61
2021/05/08 13:54:51;;;;;;;2.70;0.60;;;21.90;23.90;;;;;;5542358;23;20330;-60
2021/05/08 13:57:18;;;;;;;0.45;0.30;;;22.20;24.40;;;;;;5513866;23;20027;-61
2021/05/08 13:59:46;;;;;;;3.00;0.63;;;22.50;22.80;;;;;;5572620;23;21307;-62
2021/05/08 14:02:13;;;;;;;2.38;0.63;;;22.90;20.90;;;;;;5647803;23;20101;-62
2021/05/08 14:04:41;;;;;;;1.88;0.60;;;22.80;20.20;;;;;;5568029;23;20150;-61
2021/05/08 14:38:29;;;;;;;1.10;0.50;;;19.40;25.10;;;;;;5378222;23;20061;-59
2021/05/08 14:40:56;;;;;;;3.38;0.60;;;19.20;26.10;;;;;;5514122;23;20204;-62
2021/05/08 14:43:23;;;;;;;1.85;0.73;;;19.00;27.40;;;;;;5520729;23;20389;-61
2021/05/08 14:45:55;;;;;;;1.95;0.65;;;18.70;28.70;;;;;;5580774;23;20116;-61
2021/05/08 14:48:25;;;;;;;3.15;0.73;;;18.70;28.40;;;;;;5582171;23;20327;-62
2021/05/08 14:50:52;;;;;;;4.50;0.82;;;18.50;28.20;;;;;;5580854;23;20042;-62
2021/05/08 14:53:19;;;;;;;1.10;0.50;;;18.30;28.90;;;;;;5581656;23;21017;-61
2021/05/08 14:55:47;;;;;;;2.17;0.80;;;18.20;29.60;;;;;;5627504;23;21178;-60
2021/05/08 14:58:13;;;;;;;1.88;0.60;;;18.60;27.90;;;;;;5567297;23;20033;-61
2021/05/08 15:00:40;;;;;;;1.45;0.45;;;19.20;27.70;;;;;;5520446;23;20531;-61
2021/05/08 15:03:09;;;;;;;2.30;0.70;;;19.40;26.70;;;;;;5619533;23;20133;-61
2021/05/08 15:05:36;;;;;;;2.15;0.80;;;19.50;27.10;;;;;;5625524;23;20383;-62
2021/05/08 15:13:51;;;;;;;3.05;0.80;;;18.70;28.80;;;;;;5573013;23;20066;31
2021/05/08 15:16:23;;;;;;;1.67;0.63;;;18.60;28.80;;;;;;5470564;23;20353;31
2021/05/08 15:18:50;;;;;;;0.90;0.52;;;18.60;28.50;;;;;;5594952;23;21149;-61
2021/05/08 16:09:53;;;;;;;1.37;0.40;;;19.60;26.70;;;;;;6194422;22;20512;-61
2021/05/08 16:12:20;;;;;;;3.08;0.52;;;19.20;27.40;;;;;;6165357;22;20045;-62
2021/05/08 16:14:47;;;;;;;3.55;1.00;;;18.90;27.80;;;;;;6170469;22;20137;-61
2021/05/08 16:17:14;;;;;;;1.63;0.90;;;18.70;27.90;;;;;;6143892;22;20719;-63
2021/05/08 16:19:41;;;;;;;1.85;0.80;;;18.50;28.20;;;;;;6174090;22;20315;-61
2021/05/08 16:22:08;;;;;;;1.75;0.70;;;18.60;28.50;;;;;;6174607;22;21007;-63
2021/05/08 16:24:35;;;;;;;1.30;0.60;;;18.90;27.90;;;;;;6167925;22;20066;-61
2021/05/08 16:27:06;;;;;;;1.50;0.80;;;19.40;27.50;;;;;;6170248;22;20074;-61
2021/05/08 16:29:33;;;;;;;1.88;0.60;;;19.40;27.40;;;;;;6167718;22;20028;-61
2021/05/08 16:32:00;;;;;;;2.55;0.65;;;19.50;26.90;;;;;;6172976;22;20067;-61
2021/05/08 16:34:28;;;;;;;1.42;0.65;;;19.40;27.40;;;;;;6176514;22;20058;-61
2021/05/08 16:36:55;;;;;;;1.75;0.80;;;19.00;27.50;;;;;;6168953;22;20149;-63
2021/05/08 16:39:22;;;;;;;1.58;0.82;;;18.80;28.20;;;;;;6168780;22;20024;-61
2021/05/08 17:18:25;;;;;;;1.23;0.60;;;18.80;29.30;;;;;;6172944;22;20035;-60
2021/05/08 17:57:48;;;;;;;1.38;0.75;;;18.30;31.50;;;;;;6180922;22;20178;31
2021/05/08 18:00:16;;;;;;;2.05;0.70;;;18.10;32.10;;;;;;6170863;22;20081;-59
2021/05/08 18:02:44;;;;;;;4.40;0.60;;;17.90;32.40;;;;;;6170728;22;20111;31
2021/05/08 18:05:21;;;;;;;1.75;0.70;;;17.70;32.70;;;;;;6169920;22;20035;-60
2021/05/08 18:07:52;;;;;;;2.05;0.70;;;17.60;33.10;;;;;;6130407;22;20919;31
2021/05/08 18:10:20;;;;;;;4.10;1.63;;;17.50;33.40;;;;;;6169434;22;20044;-61
2021/05/08 18:12:47;;;;;;;4.28;1.92;;;17.40;34.00;;;;;;6146457;22;20026;-62
2021/05/08 18:15:14;;;;;;;4.65;2.63;;;17.20;35.50;;;;;;6172559;22;20047;-60
2021/05/08 18:17:41;;;;;;;5.20;2.05;;;17.10;35.20;;;;;;6178104;22;20055;-62
2021/05/08 18:20:10;;;;;;;4.60;1.63;;;16.90;36.40;;;;;;6176361;22;20025;-62
2021/05/08 18:22:37;;;;;;;4.55;1.90;;;16.70;37.30;;;;;;6190530;22;20019;-63
2021/05/08 18:25:05;;;;;;;4.65;1.65;;;16.60;39.00;;;;;;6186314;22;20699;-63
2021/05/08 18:27:33;;;;;;;5.00;2.25;;;16.30;39.10;;;;;;6155908;22;20008;-61
2021/05/08 18:30:00;;;;;;;4.78;1.50;;;16.10;40.80;;;;;;6168086;22;20018;-63
2021/05/08 18:32:30;;;;;;;5.90;1.98;;;16.00;40.60;;;;;;6174665;22;20031;-61
2021/05/08 18:34:59;;;;;;;5.80;1.80;;;15.90;42.80;;;;;;6164822;22;20029;-61
2021/05/08 18:37:26;;;;;;;6.20;1.70;;;15.60;43.40;;;;;;6179515;22;20269;-62
2021/05/08 18:39:53;;;;;;;3.85;1.70;;;15.40;43.70;;;;;;6169144;22;20020;-61
2021/05/08 18:42:20;;;;;;;1.40;0.90;;;15.30;44.70;;;;;;6173686;22;20901;-62
2021/05/08 18:44:49;;;;;;;3.45;0.90;;;15.10;45.60;;;;;;6168444;22;20051;-62
2021/05/08 18:47:16;;;;;;;3.42;1.20;;;14.80;46.20;;;;;;6178596;22;20094;-62
2021/05/08 18:49:43;;;;;;;4.43;1.08;;;14.60;46.90;;;;;;6171866;22;21410;-62
2021/05/08 18:52:10;;;;;;;3.45;1.10;;;14.50;47.10;;;;;;6172667;22;20024;-61
2021/05/08 18:54:37;;;;;;;5.07;1.25;;;14.40;48.20;;;;;;6168337;22;20259;-62
2021/05/08 18:57:04;;;;;;;6.28;1.75;;;14.20;47.50;;;;;;6174422;22;20121;-61
2021/05/08 18:59:31;;;;;;;2.55;1.23;;;14.10;50.00;;;;;;6176320;22;20353;-61
2021/05/08 19:01:59;;;;;;;6.32;1.42;;;13.90;50.30;;;;;;6173218;22;20226;-62
2021/05/08 19:04:26;;;;;;;3.33;1.42;;;13.70;52.40;;;;;;6172882;22;20741;-63
2021/05/08 19:07:34;;;;;;;4.07;2.05;;;13.50;52.70;;;;;;6174076;22;20032;31
2021/05/08 19:10:17;;;;;;;3.55;1.58;;;13.30;53.40;;;;;;6167781;22;20020;-59
2021/05/08 19:12:44;;;;;;;4.70;1.95;;;13.10;56.40;;;;;;6173946;22;20028;-62
2021/05/08 19:15:13;;;;;;;4.30;2.23;;;12.90;58.50;;;;;;6173685;22;20078;-62
2021/05/08 19:17:43;;;;;;;5.63;2.88;;;12.70;58.80;;;;;;6173515;22;20021;-60
2021/05/08 19:20:14;;;;;;;6.53;2.70;;;12.60;59.10;;;;;;6171558;22;20017;-61
2021/05/08 19:22:41;;;;;;;5.70;2.17;;;12.50;58.40;;;;;;6181536;22;20015;-62
2021/05/08 19:25:09;;;;;;;4.32;2.00;;;12.40;58.30;;;;;;6178472;22;20051;-61
2021/05/08 19:27:36;;;;;;;6.40;2.20;;;12.30;60.20;;;;;;6174937;22;20828;-61
2021/05/08 19:30:06;;;;;;;6.50;3.05;;;12.20;59.10;;;;;;6178680;22;20036;-62
2021/05/08 19:32:33;;;;;;;4.23;1.67;;;12.20;57.50;;;;;;6177328;22;20025;-61
2021/05/08 19:35:01;;;;;;;7.15;3.13;;;12.10;58.20;;;;;;6166050;22;20043;-60
2021/05/08 19:40:40;;;;;;;7.57;2.90;;;12.10;57.10;;;;;;6172641;22;20378;-62
2021/05/08 19:43:07;;;;;;;6.22;2.40;;;12.10;57.20;;;;;;6182340;22;20030;-60
2021/05/08 19:45:37;;;;;;;8.37;2.77;;;12.00;56.50;;;;;;6171434;22;20085;31
2021/05/08 19:48:16;;;;;;;7.95;2.70;;;11.90;57.80;;;;;;6166370;22;20690;31
2021/05/08 19:50:44;;;;;;;6.35;2.65;;;11.90;58.10;;;;;;6131972;22;743437;-60
2021/05/08 19:53:14;;;;;;;4.95;2.40;;;11.80;59.40;;;;;;6177339;22;20122;31
2021/05/08 19:55:41;;;;;;;4.15;1.92;;;11.60;60.00;;;;;;6174534;22;20020;-60
2021/05/08 19:58:09;;;;;;;6.50;2.47;;;11.40;60.40;;;;;;6172727;22;20675;-61
2021/05/08 20:00:39;;;;;;;4.55;1.75;;;11.30;61.30;;;;;;6170507;22;20092;-62
2021/05/08 20:03:06;;;;;;;3.63;1.63;;;11.10;61.60;;;;;;6169666;22;20075;-61
2021/05/08 20:05:34;;;;;;;7.85;2.63;;;11.00;61.70;;;;;;6169432;22;20047;-62
2021/05/08 21:17:51;;;;;;;4.90;2.70;;;9.10;73.70;;;;;;5287285;23;20871;31
2021/05/08 21:20:19;;;;;;;5.95;2.55;;;9.00;74.60;;;;;;5504287;23;20024;31
2021/05/08 21:32:35;;;;;;;4.82;2.03;;;9.20;73.30;;;;;;5612299;23;20023;31
2021/05/08 21:35:12;;;;;;;3.50;1.77;;;9.20;73.10;;;;;;5635490;23;20992;-61
2021/05/08 21:37:44;;;;;;;4.15;1.83;;;9.20;72.40;;;;;;5580730;23;20131;31
2021/05/08 21:40:13;;;;;;;6.57;2.08;;;9.20;72.60;;;;;;5642863;23;21326;-59
2021/05/08 21:42:40;;;;;;;3.60;1.60;;;9.20;73.20;;;;;;5625882;23;20027;-61
2021/05/08 21:45:08;;;;;;;4.65;1.77;;;9.20;73.10;;;;;;5551812;23;20088;-60
2021/05/08 21:47:35;;;;;;;7.47;3.15;;;9.10;73.80;;;;;;5545612;23;20287;-62
2021/05/08 21:50:04;;;;;;;5.50;1.60;;;9.00;73.60;;;;;;5631127;23;20046;-59
2021/05/08 22:28:46;;;;;;;38.33;16.60;;;8.30;78.20;;;;;;5597191;23;20024;-62
2021/05/08 22:31:14;;;;;;;11.10;5.82;;;8.20;78.50;;;;;;5548625;23;20811;-62
2021/05/08 22:33:42;;;;;;;4.43;2.15;;;8.20;78.60;;;;;;5564871;23;20024;-62
2021/05/08 22:36:09;;;;;;;3.67;1.90;;;8.10;79.00;;;;;;5099819;23;20322;-60
2021/05/08 23:49:17;;;;;;;4.32;1.52;;;7.10;83.20;;;;;;5439504;23;20091;31
2021/05/08 23:54:27;;;;;;;2.42;1.42;;;7.10;83.40;;;;;;5818638;22;20420;-59
2021/05/08 23:56:54;;;;;;;3.47;1.33;;;7.10;83.60;;;;;;5665194;22;20023;-62
2021/05/08 23:59:21;;;;;;;5.10;1.30;;;7.20;83.10;;;;;;5783025;22;20024;-62
